createdAt,value
2018-09-27T00:02:23.464Z,54.60
2018-09-27T00:04:51.793Z,54.60
2018-09-27T00:07:20.125Z,54.40
2018-09-27T00:09:55.184Z,54.50
2018-09-27T00:12:23.517Z,54.50
2018-09-27T00:14:51.837Z,54.70
2018-09-27T00:17:20.177Z,54.50
2018-09-27T00:19:48.500Z,54.70
2018-09-27T00:22:16.833Z,54.80
2018-09-27T00:24:45.152Z,54.80
2018-09-27T00:27:13.481Z,54.80
2018-09-27T00:29:41.824Z,54.90
2018-09-27T00:32:10.188Z,55.30
2018-09-27T00:34:38.617Z,55.20
2018-09-27T00:37:06.940Z,55.20
2018-09-27T00:39:35.241Z,55.30
2018-09-27T00:42:03.589Z,55.70
2018-09-27T00:44:31.904Z,56.00
2018-09-27T00:47:00.238Z,56.10
2018-09-27T00:49:28.550Z,56.10
2018-09-27T00:51:56.877Z,56.20
2018-09-27T00:54:25.200Z,56.50
2018-09-27T00:56:53.504Z,56.60
2018-09-27T00:59:21.846Z,56.70
2018-09-27T01:01:50.138Z,56.90
2018-09-27T01:04:18.476Z,56.90
2018-09-27T01:06:46.776Z,57.00
2018-09-27T01:09:15.112Z,57.10
2018-09-27T01:11:43.422Z,57.10
2018-09-27T01:14:11.761Z,57.20
2018-09-27T01:16:40.069Z,57.50
2018-09-27T01:19:08.394Z,57.80
2018-09-27T01:21:36.727Z,57.70
2018-09-27T01:24:05.053Z,58.50
2018-09-27T01:26:33.357Z,58.00
2018-09-27T01:29:01.721Z,58.20
2018-09-27T01:31:30.029Z,58.40
2018-09-27T01:33:58.362Z,58.50
2018-09-27T01:36:26.677Z,58.70
2018-09-27T01:38:55.015Z,58.80
2018-09-27T01:41:23.348Z,59.00
2018-09-27T01:43:51.683Z,59.10
2018-09-27T01:46:20.004Z,59.90
2018-09-27T01:48:48.337Z,59.40
2018-09-27T01:51:16.657Z,59.50
2018-09-27T01:53:44.988Z,59.60
2018-09-27T01:56:13.297Z,59.80
2018-09-27T01:58:41.625Z,60.00
2018-09-27T02:01:09.938Z,61.00
2018-09-27T02:03:38.265Z,60.40
2018-09-27T02:06:06.593Z,60.40
2018-09-27T02:08:34.920Z,60.60
2018-09-27T02:11:03.225Z,60.40
2018-09-27T02:13:31.557Z,60.60
2018-09-27T02:15:59.865Z,60.80
2018-09-27T02:18:28.206Z,60.80
2018-09-27T02:20:56.534Z,60.90
2018-09-27T02:23:24.865Z,61.00
2018-09-27T02:25:53.175Z,61.00
2018-09-27T02:28:21.501Z,61.20
2018-09-27T02:30:49.861Z,61.10
2018-09-27T02:33:18.188Z,61.10
2018-09-27T02:35:46.501Z,61.10
2018-09-27T02:38:14.844Z,61.30
2018-09-27T02:40:43.192Z,61.40
2018-09-27T02:43:11.514Z,61.70
2018-09-27T02:45:39.812Z,61.80
2018-09-27T02:48:08.164Z,62.00
2018-09-27T02:50:36.461Z,62.10
2018-09-27T02:53:04.792Z,62.40
2018-09-27T02:55:33.096Z,62.50
2018-09-27T02:58:01.412Z,62.50
2018-09-27T03:00:29.705Z,62.60
2018-09-27T03:02:58.022Z,62.90
2018-09-27T03:05:26.365Z,63.00
2018-09-27T03:07:54.711Z,63.20
2018-09-27T03:10:23.011Z,63.30
2018-09-27T03:12:51.319Z,63.40
2018-09-27T03:15:19.648Z,63.60
2018-09-27T03:17:47.954Z,63.80
2018-09-27T03:20:16.278Z,63.80
2018-09-27T03:22:44.600Z,64.00
2018-09-27T03:25:12.923Z,64.10
2018-09-27T03:27:41.221Z,64.30
2018-09-27T03:30:09.548Z,64.40
2018-09-27T03:32:37.842Z,64.70
2018-09-27T03:35:06.172Z,65.10
2018-09-27T03:37:34.480Z,65.20
2018-09-27T03:40:02.848Z,65.50
2018-09-27T03:42:31.153Z,65.60
2018-09-27T03:44:59.499Z,65.70
2018-09-27T03:47:27.811Z,65.90
2018-09-27T03:49:56.139Z,66.00
2018-09-27T03:52:24.456Z,66.10
2018-09-27T03:54:52.785Z,66.30
2018-09-27T03:57:21.093Z,66.40
2018-09-27T03:59:49.435Z,66.50
2018-09-27T04:02:17.735Z,66.70
2018-09-27T04:04:46.077Z,66.80
2018-09-27T04:07:14.384Z,66.90
2018-09-27T04:09:42.701Z,67.00
2018-09-27T04:12:10.998Z,67.10
2018-09-27T04:14:39.319Z,67.30
2018-09-27T04:17:07.623Z,67.40
2018-09-27T04:19:35.943Z,67.50
2018-09-27T04:22:04.239Z,67.70
2018-09-27T04:24:32.556Z,67.90
2018-09-27T04:27:00.891Z,68.00
2018-09-27T04:29:29.221Z,68.00
2018-09-27T04:31:57.521Z,68.00
2018-09-27T04:34:26.049Z,68.10
2018-09-27T04:36:54.371Z,68.20
2018-09-27T04:39:22.694Z,68.30
2018-09-27T04:41:51.019Z,68.30
2018-09-27T04:44:19.376Z,68.50
2018-09-27T04:46:47.743Z,68.60
2018-09-27T04:49:16.019Z,68.60
2018-09-27T04:51:44.348Z,68.60
2018-09-27T04:54:12.762Z,68.50
2018-09-27T04:56:41.117Z,68.60
2018-09-27T04:59:09.740Z,68.50
2018-09-27T05:01:38.095Z,68.50
2018-09-27T05:04:06.456Z,68.50
2018-09-27T05:06:34.768Z,68.50
2018-09-27T05:09:03.448Z,68.50
2018-09-27T05:11:31.859Z,68.50
2018-09-27T05:14:00.194Z,68.60
2018-09-27T05:16:28.520Z,68.70
2018-09-27T05:18:56.872Z,68.70
2018-09-27T05:21:25.250Z,68.80
2018-09-27T05:23:53.516Z,68.70
2018-09-27T05:26:21.844Z,68.80
2018-09-27T05:28:50.152Z,68.80
2018-09-27T05:31:18.489Z,68.90
2018-09-27T05:33:46.798Z,68.90
2018-09-27T05:36:15.112Z,68.90
2018-09-27T05:38:45.719Z,68.90
2018-09-27T05:41:14.084Z,68.90
2018-09-27T05:43:42.374Z,68.90
2018-09-27T05:46:10.703Z,68.90
2018-09-27T05:48:38.995Z,68.90
2018-09-27T05:51:07.572Z,69.00
2018-09-27T05:53:35.884Z,69.10
2018-09-27T05:56:04.210Z,69.10
2018-09-27T05:58:32.517Z,68.90
2018-09-27T06:01:00.841Z,69.00
2018-09-27T06:03:29.195Z,69.00
2018-09-27T06:05:57.512Z,68.90
2018-09-27T06:08:25.820Z,68.90
2018-09-27T06:10:54.137Z,68.90
2018-09-27T06:13:22.440Z,69.00
2018-09-27T06:15:50.768Z,68.80
2018-09-27T06:18:19.068Z,68.70
2018-09-27T06:20:47.388Z,68.70
2018-09-27T06:23:15.680Z,68.80
2018-09-27T06:25:44.144Z,68.80
2018-09-27T06:28:14.653Z,68.90
2018-09-27T06:30:43.149Z,68.80
2018-09-27T06:33:11.439Z,69.10
2018-09-27T06:35:39.755Z,69.00
2018-09-27T06:38:08.074Z,69.30
2018-09-27T06:40:36.423Z,69.00
2018-09-27T06:43:04.712Z,69.10
2018-09-27T06:45:33.039Z,69.10
2018-09-27T06:48:01.350Z,69.40
2018-09-27T06:50:29.680Z,69.40
2018-09-27T06:52:57.979Z,69.50
2018-09-27T06:55:26.457Z,69.60
2018-09-27T06:57:54.672Z,69.40
2018-09-27T07:00:23.020Z,69.40
2018-09-27T07:02:51.328Z,69.20
2018-09-27T07:05:19.669Z,69.30
2018-09-27T07:07:47.976Z,69.50
2018-09-27T07:10:16.316Z,69.40
2018-09-27T07:12:44.673Z,69.40
2018-09-27T07:15:13.181Z,69.50
2018-09-27T07:17:41.492Z,69.50
2018-09-27T07:20:09.819Z,69.40
2018-09-27T07:22:38.133Z,69.40
2018-09-27T07:25:06.542Z,69.40
2018-09-27T07:27:34.837Z,69.40
2018-09-27T07:30:03.206Z,69.30
2018-09-27T07:32:31.526Z,69.30
2018-09-27T07:34:59.855Z,69.30
2018-09-27T07:37:28.180Z,69.40
2018-09-27T07:39:56.488Z,69.50
2018-09-27T07:42:24.848Z,69.30
2018-09-27T07:44:53.157Z,69.50
2018-09-27T07:47:21.488Z,69.50
2018-09-27T07:49:49.783Z,69.40
2018-09-27T07:52:18.227Z,69.50
2018-09-27T07:54:46.586Z,69.20
2018-09-27T07:57:14.916Z,69.30
2018-09-27T07:59:43.343Z,69.10
2018-09-27T08:02:11.667Z,69.30
2018-09-27T08:04:39.997Z,69.30
2018-09-27T08:07:09.149Z,69.00
2018-09-27T08:09:37.457Z,68.80
2018-09-27T08:12:05.791Z,68.50
2018-09-27T08:14:34.112Z,68.30
2018-09-27T08:17:02.476Z,68.80
2018-09-27T08:19:30.784Z,68.30
2018-09-27T08:21:59.115Z,68.40
2018-09-27T08:24:27.416Z,68.10
2018-09-27T08:26:55.729Z,67.30
2018-09-27T08:29:24.043Z,67.20
2018-09-27T08:31:52.403Z,68.10
2018-09-27T08:34:20.728Z,67.60
2018-09-27T08:36:49.058Z,67.10
2018-09-27T08:39:17.380Z,67.20
2018-09-27T08:41:45.724Z,67.90
2018-09-27T08:44:14.042Z,67.10
2018-09-27T08:46:43.511Z,67.00
2018-09-27T08:49:11.805Z,66.30
2018-09-27T08:51:40.155Z,65.90
2018-09-27T08:54:08.555Z,66.20
2018-09-27T08:56:36.877Z,66.30
2018-09-27T08:59:05.180Z,66.10
2018-09-27T09:01:33.566Z,66.20
2018-09-27T09:04:01.924Z,66.60
2018-09-27T09:06:30.165Z,66.60
2018-09-27T09:08:58.484Z,66.70
2018-09-27T09:11:26.803Z,66.90
2018-09-27T09:13:55.112Z,67.50
2018-09-27T09:16:23.440Z,67.60
2018-09-27T09:18:51.760Z,66.70
2018-09-27T09:21:20.113Z,66.70
2018-09-27T09:23:48.413Z,66.30
2018-09-27T09:26:16.739Z,65.90
2018-09-27T09:28:45.040Z,65.90
2018-09-27T09:31:13.380Z,65.80
2018-09-27T09:33:41.947Z,66.40
2018-09-27T09:36:10.213Z,65.90
2018-09-27T09:38:38.539Z,66.00
2018-09-27T09:41:06.948Z,66.10
2018-09-27T09:43:35.272Z,65.50
2018-09-27T09:46:03.620Z,65.40
2018-09-27T09:48:31.931Z,65.10
2018-09-27T09:51:00.236Z,64.30
2018-09-27T09:53:28.563Z,64.20
2018-09-27T09:55:56.860Z,63.90
2018-09-27T09:58:25.223Z,63.80
2018-09-27T10:00:53.683Z,64.30
2018-09-27T10:03:22.074Z,64.40
2018-09-27T10:05:50.413Z,65.20
2018-09-27T10:08:18.731Z,64.40
2018-09-27T10:10:47.024Z,64.40
2018-09-27T10:13:15.339Z,63.90
2018-09-27T10:15:43.664Z,64.00
2018-09-27T10:18:11.972Z,63.30
2018-09-27T10:20:40.252Z,63.10
2018-09-27T10:23:09.115Z,63.30
2018-09-27T10:25:37.435Z,62.80
2018-09-27T10:28:05.750Z,63.40
2018-09-27T10:30:34.063Z,63.10
2018-09-27T10:33:02.465Z,62.60
2018-09-27T10:35:30.760Z,62.80
2018-09-27T10:37:59.083Z,62.20
2018-09-27T10:40:27.400Z,62.10
2018-09-27T10:42:55.740Z,61.80
2018-09-27T10:45:24.028Z,61.60
2018-09-27T10:47:52.356Z,61.50
2018-09-27T10:50:20.669Z,61.00
2018-09-27T10:52:48.971Z,60.60
2018-09-27T10:55:17.284Z,60.10
2018-09-27T10:57:45.605Z,60.20
2018-09-27T11:00:17.911Z,60.30
2018-09-27T11:02:46.787Z,60.00
2018-09-27T11:05:15.117Z,59.90
2018-09-27T11:07:43.454Z,60.60
2018-09-27T11:10:11.849Z,59.10
2018-09-27T11:12:40.332Z,59.40
2018-09-27T11:15:08.632Z,59.20
2018-09-27T11:17:37.025Z,58.70
2018-09-27T11:20:05.464Z,58.90
2018-09-27T11:22:33.784Z,58.40
2018-09-27T11:25:02.110Z,58.50
2018-09-27T11:27:30.471Z,58.00
2018-09-27T11:30:04.079Z,57.90
2018-09-27T11:32:33.905Z,58.30
2018-09-27T11:35:02.199Z,58.00
2018-09-27T11:37:30.535Z,57.80
2018-09-27T11:39:58.841Z,56.70
2018-09-27T11:42:27.204Z,56.40
2018-09-27T11:44:55.507Z,56.30
2018-09-27T11:47:23.859Z,55.80
2018-09-27T11:49:52.273Z,55.50
2018-09-27T11:52:20.507Z,55.50
2018-09-27T11:54:48.875Z,54.80
2018-09-27T11:57:17.164Z,54.50
2018-09-27T11:59:45.577Z,53.80
2018-09-27T12:02:14.012Z,54.50
2018-09-27T12:04:42.418Z,53.80
2018-09-27T12:07:10.749Z,53.80
2018-09-27T12:09:39.081Z,53.70
2018-09-27T12:12:07.424Z,54.40
2018-09-27T12:14:35.806Z,53.30
2018-09-27T12:17:04.088Z,53.10
2018-09-27T12:19:32.442Z,52.30
2018-09-27T12:22:00.732Z,52.80
2018-09-27T12:24:29.074Z,52.00
2018-09-27T12:26:57.379Z,52.70
2018-09-27T12:29:25.695Z,52.60
2018-09-27T12:31:54.020Z,52.30
2018-09-27T12:34:22.392Z,53.10
2018-09-27T12:36:50.695Z,52.10
2018-09-27T12:39:19.010Z,52.30
2018-09-27T12:41:47.368Z,52.00
2018-09-27T12:44:15.688Z,51.40
2018-09-27T12:46:44.019Z,51.30
2018-09-27T12:49:12.352Z,50.20
2018-09-27T12:51:40.785Z,50.70
2018-09-27T12:54:09.080Z,50.30
2018-09-27T12:56:37.468Z,50.20
2018-09-27T12:59:05.800Z,50.20
2018-09-27T13:01:34.625Z,50.10
2018-09-27T13:04:03.008Z,50.20
2018-09-27T13:06:31.283Z,50.20
2018-09-27T13:08:59.714Z,50.40
2018-09-27T13:11:27.952Z,50.30
2018-09-27T13:13:56.277Z,50.10
2018-09-27T13:16:24.591Z,49.90
2018-09-27T13:18:57.938Z,49.50
2018-09-27T13:21:21.236Z,49.70
2018-09-27T13:23:49.556Z,49.50
2018-09-27T13:26:17.843Z,49.40
2018-09-27T13:28:46.169Z,49.20
2018-09-27T13:31:14.471Z,49.10
2018-09-27T13:33:42.803Z,49.20
2018-09-27T13:36:11.128Z,49.10
2018-09-27T13:38:39.443Z,48.20
2018-09-27T13:41:07.765Z,48.20
2018-09-27T13:43:36.093Z,48.20
2018-09-27T13:46:04.391Z,48.70
2018-09-27T13:48:32.714Z,48.10
2018-09-27T13:51:01.066Z,48.50
2018-09-27T13:53:29.372Z,48.20
2018-09-27T13:55:57.824Z,48.10
2018-09-27T13:58:26.135Z,48.50
2018-09-27T14:00:54.516Z,47.80
2018-09-27T14:03:22.797Z,47.50
2018-09-27T14:05:51.089Z,47.50
2018-09-27T14:08:19.421Z,47.60
2018-09-27T14:10:47.723Z,47.60
2018-09-27T14:13:16.031Z,48.00
2018-09-27T14:15:44.319Z,48.10
2018-09-27T14:18:12.641Z,48.00
2018-09-27T14:20:40.931Z,48.00
2018-09-27T14:23:09.229Z,47.80
2018-09-27T14:25:37.582Z,48.00
2018-09-27T14:28:05.851Z,48.10
2018-09-27T14:30:34.174Z,48.50
2018-09-27T14:33:02.468Z,48.50
2018-09-27T14:35:30.812Z,48.60
2018-09-27T14:37:59.118Z,48.50
2018-09-27T14:40:27.457Z,49.00
2018-09-27T14:42:55.751Z,48.90
2018-09-27T14:45:24.072Z,48.90
2018-09-27T14:47:52.460Z,49.00
2018-09-27T14:50:20.797Z,49.10
2018-09-27T14:52:49.042Z,49.50
2018-09-27T14:55:17.392Z,49.30
2018-09-27T14:57:45.687Z,49.40
2018-09-27T15:00:14.001Z,49.70
2018-09-27T15:02:42.299Z,49.90
2018-09-27T15:05:10.612Z,50.00
2018-09-27T15:07:38.939Z,49.80
2018-09-27T15:10:07.257Z,50.00
2018-09-27T15:12:35.612Z,50.00
2018-09-27T15:15:03.940Z,50.00
2018-09-27T15:17:32.233Z,50.00
2018-09-27T15:20:00.543Z,50.10
2018-09-27T15:22:28.885Z,50.20
2018-09-27T15:24:57.179Z,50.20
2018-09-27T15:27:25.493Z,50.00
2018-09-27T15:29:53.820Z,50.00
2018-09-27T15:32:22.127Z,50.10
2018-09-27T15:34:50.437Z,50.20
2018-09-27T15:37:18.749Z,50.40
2018-09-27T15:39:47.117Z,50.60
2018-09-27T15:42:15.411Z,50.50
2018-09-27T15:44:43.731Z,50.00
2018-09-27T15:47:12.034Z,49.80
2018-09-27T15:49:40.360Z,50.00
2018-09-27T15:52:08.656Z,50.00
2018-09-27T15:54:36.968Z,50.30
2018-09-27T15:57:05.280Z,50.50
2018-09-27T15:59:33.603Z,50.60
2018-09-27T16:02:01.908Z,50.90
2018-09-27T16:04:30.224Z,51.10
2018-09-27T16:06:58.520Z,51.30
2018-09-27T16:09:26.837Z,51.50
2018-09-27T16:11:55.212Z,51.60
2018-09-27T16:14:23.464Z,51.70
2018-09-27T16:16:51.766Z,51.90
2018-09-27T16:19:20.083Z,52.10
2018-09-27T16:21:48.400Z,52.30
2018-09-27T16:24:16.745Z,52.60
2018-09-27T16:26:45.040Z,52.80
2018-09-27T16:29:13.356Z,53.70
2018-09-27T16:31:41.672Z,53.10
2018-09-27T16:34:09.968Z,53.20
2018-09-27T16:36:38.283Z,53.40
2018-09-27T16:39:11.494Z,53.60
2018-09-27T16:41:40.156Z,53.80
2018-09-27T16:44:08.692Z,54.20
2018-09-27T16:46:37.367Z,54.40
2018-09-27T16:49:06.137Z,54.80
2018-09-27T16:51:35.071Z,55.70
2018-09-27T16:54:03.500Z,55.60
2018-09-27T16:56:31.812Z,56.00
2018-09-27T16:59:00.103Z,56.30
2018-09-27T17:01:28.423Z,56.60
2018-09-27T17:03:56.724Z,57.20
2018-09-27T17:06:25.032Z,57.50
2018-09-27T17:08:53.334Z,57.70
2018-09-27T17:11:21.643Z,58.00
2018-09-27T17:13:49.953Z,58.30
2018-09-27T17:16:18.272Z,58.50
2018-09-27T17:18:46.795Z,58.90
2018-09-27T17:21:15.080Z,59.30
2018-09-27T17:23:43.436Z,59.70
2018-09-27T17:26:11.737Z,59.90
2018-09-27T17:28:40.092Z,60.20
2018-09-27T17:31:08.557Z,60.70
2018-09-27T17:33:36.851Z,60.70
2018-09-27T17:36:05.168Z,61.10
2018-09-27T17:38:33.464Z,61.30
2018-09-27T17:41:01.810Z,61.60
2018-09-27T17:43:30.158Z,61.80
2018-09-27T17:45:58.526Z,61.90
2018-09-27T17:48:26.787Z,62.10
2018-09-27T17:50:55.117Z,62.40
2018-09-27T17:53:23.487Z,62.40
2018-09-27T17:55:51.760Z,62.60
2018-09-27T17:58:20.048Z,62.80
2018-09-27T18:00:48.414Z,62.90
2018-09-27T18:03:16.735Z,63.30
2018-09-27T18:05:45.319Z,63.50
2018-09-27T18:08:13.591Z,63.70
2018-09-27T18:10:41.967Z,64.60
2018-09-27T18:13:10.386Z,64.20
2018-09-27T18:15:38.700Z,64.60
2018-09-27T18:18:07.027Z,64.60
2018-09-27T18:20:35.340Z,64.80
2018-09-27T18:23:03.652Z,64.90
2018-09-27T18:25:31.998Z,65.30
2018-09-27T18:28:00.359Z,65.40
2018-09-27T18:30:28.667Z,65.50
2018-09-27T18:32:56.971Z,65.80
2018-09-27T18:35:25.288Z,66.10
2018-09-27T18:37:53.764Z,66.10
2018-09-27T18:40:21.961Z,66.20
2018-09-27T18:42:50.267Z,66.20
2018-09-27T18:45:18.589Z,66.50
2018-09-27T18:47:46.892Z,66.70
2018-09-27T18:50:15.263Z,67.00
2018-09-27T18:52:43.584Z,67.00
2018-09-27T18:55:11.879Z,67.10
2018-09-27T18:57:40.231Z,67.30
2018-09-27T19:00:08.587Z,67.50
2018-09-27T19:02:36.929Z,67.60
2018-09-27T19:05:05.324Z,67.80
2018-09-27T19:07:33.699Z,68.00
2018-09-27T19:10:02.007Z,68.30
2018-09-27T19:12:30.325Z,68.50
2018-09-27T19:14:58.629Z,68.80
2018-09-27T19:17:26.944Z,68.80
2018-09-27T19:19:55.273Z,68.90
2018-09-27T19:22:23.619Z,69.20
2018-09-27T19:24:51.933Z,69.20
2018-09-27T19:27:20.830Z,69.30
2018-09-27T19:29:49.147Z,69.50
2018-09-27T19:32:17.482Z,69.50
2018-09-27T19:34:45.792Z,69.70
2018-09-27T19:37:14.113Z,69.90
2018-09-27T19:39:42.407Z,70.10
2018-09-27T19:42:10.760Z,70.40
2018-09-27T19:44:39.062Z,70.50
2018-09-27T19:47:07.474Z,70.80
2018-09-27T19:49:35.777Z,70.80
2018-09-27T19:52:04.387Z,70.80
2018-09-27T19:54:32.781Z,70.80
2018-09-27T19:57:01.276Z,70.70
2018-09-27T19:59:29.650Z,70.80
2018-09-27T20:01:58.052Z,71.00
2018-09-27T20:04:26.387Z,71.10
2018-09-27T20:06:54.707Z,71.40
2018-09-27T20:09:23.017Z,71.80
2018-09-27T20:11:51.335Z,71.90
2018-09-27T20:14:19.635Z,72.00
2018-09-27T20:16:47.969Z,72.10
2018-09-27T20:19:16.276Z,72.10
2018-09-27T20:21:44.593Z,71.90
2018-09-27T20:24:12.899Z,72.10
2018-09-27T20:26:41.239Z,72.10
2018-09-27T20:29:09.592Z,72.10
2018-09-27T20:31:37.919Z,71.60
2018-09-27T20:34:06.281Z,72.10
2018-09-27T20:36:34.560Z,71.90
2018-09-27T20:39:02.878Z,72.00
2018-09-27T20:41:31.208Z,72.10
2018-09-27T20:43:59.511Z,72.00
2018-09-27T20:46:27.820Z,72.00
2018-09-27T20:48:56.133Z,71.80
2018-09-27T20:51:24.436Z,71.90
2018-09-27T20:53:52.796Z,71.90
2018-09-27T20:56:21.072Z,72.10
2018-09-27T20:58:49.372Z,72.00
2018-09-27T21:01:17.672Z,72.60
2018-09-27T21:03:45.989Z,72.00
2018-09-27T21:06:14.289Z,71.70
2018-09-27T21:08:42.620Z,71.90
2018-09-27T21:11:10.915Z,72.00
2018-09-27T21:13:39.227Z,72.00
2018-09-27T21:16:07.620Z,71.70
2018-09-27T21:18:35.932Z,72.00
2018-09-27T21:21:04.232Z,71.90
2018-09-27T21:23:32.560Z,71.80
2018-09-27T21:26:00.856Z,71.40
2018-09-27T21:28:29.174Z,71.10
2018-09-27T21:30:57.459Z,70.60
2018-09-27T21:33:25.776Z,69.90
2018-09-27T21:35:54.077Z,69.30
2018-09-27T21:38:22.396Z,68.70
2018-09-27T21:40:50.716Z,68.70
2018-09-27T21:43:19.057Z,68.30
2018-09-27T21:45:47.342Z,68.50
2018-09-27T21:48:15.660Z,68.50
2018-09-27T21:50:43.996Z,67.90
2018-09-27T21:53:12.342Z,67.80
2018-09-27T21:55:40.642Z,67.50
2018-09-27T21:58:08.975Z,67.30
2018-09-27T22:00:37.275Z,67.50
2018-09-27T22:03:05.592Z,67.40
2018-09-27T22:05:33.887Z,67.10
2018-09-27T22:08:02.211Z,67.00
2018-09-27T22:10:30.523Z,66.90
2018-09-27T22:12:58.843Z,67.50
2018-09-27T22:15:27.141Z,66.90
2018-09-27T22:17:55.538Z,66.60
2018-09-27T22:20:23.832Z,66.90
2018-09-27T22:22:52.147Z,66.50
2018-09-27T22:25:20.441Z,66.40
2018-09-27T22:27:48.756Z,66.50
2018-09-27T22:30:17.056Z,66.50
2018-09-27T22:32:45.367Z,66.80
2018-09-27T22:35:13.675Z,66.80
2018-09-27T22:37:42.000Z,67.20
2018-09-27T22:40:10.461Z,67.30
2018-09-27T22:42:38.779Z,67.40
2018-09-27T22:45:07.104Z,67.60
2018-09-27T22:47:35.431Z,67.60
2018-09-27T22:50:03.737Z,67.80
2018-09-27T22:52:32.045Z,68.00
2018-09-27T22:55:00.348Z,68.00
2018-09-27T22:57:28.664Z,68.10
2018-09-27T22:59:56.958Z,68.10
2018-09-27T23:02:25.284Z,68.10
2018-09-27T23:04:53.573Z,68.00
2018-09-27T23:07:21.904Z,67.40
2018-09-27T23:09:50.200Z,67.70
2018-09-27T23:12:18.495Z,67.50
2018-09-27T23:14:46.816Z,67.30
2018-09-27T23:17:15.120Z,67.30
2018-09-27T23:19:43.436Z,67.40
2018-09-27T23:22:11.748Z,67.60
2018-09-27T23:24:40.067Z,68.10
2018-09-27T23:27:08.366Z,68.40
2018-09-27T23:29:36.687Z,68.50
2018-09-27T23:32:04.988Z,68.70
2018-09-27T23:34:33.303Z,68.70
2018-09-27T23:37:01.601Z,68.60
2018-09-27T23:39:29.912Z,68.60
2018-09-27T23:41:58.216Z,68.00
2018-09-27T23:44:26.528Z,68.30
2018-09-27T23:46:54.831Z,67.90
2018-09-27T23:49:23.148Z,68.10
2018-09-27T23:51:51.442Z,68.30
2018-09-27T23:54:19.755Z,68.40
2018-09-27T23:56:48.051Z,68.40
2018-09-27T23:59:16.364Z,68.50
